KTSP/TSP METAR and TAF weather

Enter ICAO airport designator
Station Type Date Time Source
KTSP METAR 2020/01/24 03:15 UTC NOAA

KTSP 240315Z AUTO 00000KT 10SM CLR 06/00 A3018 RMK AO2


Station Type Date Time Source
KTSP Decoded METAR 2020/01/24 03:15 UTC NOAA

Station name not available
Jan 23, 2020 - 10:15 PM EST / 2020.01.24 0315 UTC
Wind: Calm:0
Visibility: 10 mile(s):0
Sky conditions: clear
Temperature: 42 F (6 C)
Dew Point: 32 F (0 C)
Relative Humidity: 65%
Pressure (altimeter): 30.18 in. Hg (1022 hPa)
ob: KTSP 240315Z AUTO 00000KT 10SM CLR 06/00 A3018 RMK AO2
cycle: 3

Station Type Date Time Source
KTSP TAF UTC NOAA

Error!

Example: see airport list